createdAt,value
2023-03-26T00:01:52.831Z,8.28
2023-03-26T00:04:21.872Z,8.24
2023-03-26T00:06:50.487Z,8.16
2023-03-26T00:09:18.889Z,8.16
2023-03-26T00:11:46.929Z,8.12
2023-03-26T00:14:17.605Z,8.13
2023-03-26T00:16:47.717Z,8.18
2023-03-26T00:19:16.747Z,8.18
2023-03-26T00:21:44.602Z,8.14
2023-03-26T00:24:15.356Z,8.17
2023-03-26T00:26:44.681Z,8.13
2023-03-26T00:29:13.854Z,8.09
2023-03-26T00:31:46.553Z,8.07
2023-03-26T00:34:18.483Z,8.03
2023-03-26T00:36:47.447Z,8.05
2023-03-26T00:39:15.367Z,8.10
2023-03-26T00:41:43.764Z,8.16
2023-03-26T00:44:11.703Z,8.22
2023-03-26T00:46:39.574Z,8.25
2023-03-26T00:49:10.811Z,8.31
2023-03-26T00:51:39.393Z,8.44
2023-03-26T00:54:08.474Z,8.48
2023-03-26T00:56:36.221Z,8.53
2023-03-26T00:59:04.370Z,8.59
2023-03-26T01:01:32.523Z,8.64
2023-03-26T01:04:30.576Z,8.65
2023-03-26T01:07:06.847Z,8.69
2023-03-26T01:09:42.788Z,8.76
2023-03-26T01:12:18.354Z,8.80
2023-03-26T01:14:50.208Z,8.76
2023-03-26T01:17:19.410Z,8.68
2023-03-26T01:20:15.188Z,8.63
2023-03-26T01:22:49.475Z,8.68
2023-03-26T01:25:17.310Z,8.71
2023-03-26T01:27:50.254Z,8.71
2023-03-26T01:30:43.367Z,8.71
2023-03-26T01:33:26.434Z,8.69
2023-03-26T01:36:16.842Z,8.69
2023-03-26T01:38:46.914Z,8.70
2023-03-26T01:41:21.660Z,8.77
2023-03-26T01:44:02.804Z,8.74
2023-03-26T01:46:36.339Z,8.72
2023-03-26T01:49:05.724Z,8.76
2023-03-26T01:51:35.643Z,8.77
2023-03-26T01:54:05.832Z,8.77
2023-03-26T01:56:50.311Z,8.83
2023-03-26T01:59:53.110Z,8.89
2023-03-26T02:02:37.275Z,9.01
2023-03-26T02:05:28.576Z,9.05
2023-03-26T02:08:09.594Z,9.09
2023-03-26T02:10:49.425Z,9.12
2023-03-26T02:13:17.286Z,9.14
2023-03-26T02:15:56.818Z,9.11
2023-03-26T02:18:25.209Z,9.06
2023-03-26T02:20:53.190Z,9.05
2023-03-26T02:23:21.522Z,9.12
2023-03-26T02:25:49.329Z,9.20
2023-03-26T02:28:17.160Z,9.18
2023-03-26T02:30:45.927Z,9.20
2023-03-26T02:33:15.477Z,9.11
2023-03-26T02:35:45.938Z,9.03
2023-03-26T02:38:14.722Z,9.01
2023-03-26T02:40:42.843Z,9.00
2023-03-26T02:43:10.954Z,9.03
2023-03-26T02:45:39.352Z,9.05
2023-03-26T02:48:26.385Z,9.11
2023-03-26T02:51:00.173Z,9.10
2023-03-26T02:53:51.568Z,9.14
2023-03-26T02:56:37.701Z,9.22
2023-03-26T02:59:28.685Z,9.22
2023-03-26T03:02:14.732Z,9.18
2023-03-26T03:04:44.194Z,9.14
2023-03-26T03:07:15.050Z,9.20
2023-03-26T03:09:43.141Z,9.16
2023-03-26T03:12:29.601Z,9.10
2023-03-26T03:14:57.462Z,9.00
2023-03-26T03:17:25.307Z,8.94
2023-03-26T03:19:53.078Z,8.87
2023-03-26T03:22:21.050Z,8.79
2023-03-26T03:24:51.968Z,8.70
2023-03-26T03:27:21.618Z,8.63
2023-03-26T03:29:58.943Z,8.57
2023-03-26T03:32:47.348Z,8.53
2023-03-26T03:35:18.210Z,8.48
2023-03-26T03:37:48.782Z,8.46
2023-03-26T03:40:16.840Z,8.46
2023-03-26T03:42:46.638Z,8.46
2023-03-26T03:45:15.501Z,8.45
2023-03-26T03:47:53.160Z,8.43
2023-03-26T03:50:26.975Z,8.40
2023-03-26T03:53:08.779Z,8.40
2023-03-26T03:55:38.330Z,8.41
2023-03-26T03:58:09.237Z,8.44
2023-03-26T04:00:38.446Z,8.48
2023-03-26T04:03:33.538Z,8.54
2023-03-26T04:06:02.103Z,8.60
2023-03-26T04:08:30.237Z,8.64
2023-03-26T04:10:58.280Z,8.67
2023-03-26T04:13:44.851Z,8.69
2023-03-26T04:16:27.180Z,8.73
2023-03-26T04:18:55.114Z,8.70
2023-03-26T04:21:24.095Z,8.73
2023-03-26T04:23:51.774Z,8.75
2023-03-26T04:26:50.026Z,8.73
2023-03-26T04:29:24.495Z,8.72
2023-03-26T04:32:06.457Z,8.82
2023-03-26T04:34:34.421Z,8.84
2023-03-26T04:37:21.965Z,8.87
2023-03-26T04:39:55.537Z,8.95
2023-03-26T04:42:49.612Z,8.93
2023-03-26T04:45:30.441Z,8.90
2023-03-26T04:47:58.330Z,8.76
2023-03-26T04:50:26.982Z,8.65
2023-03-26T04:52:57.399Z,8.60
2023-03-26T04:56:12.533Z,8.59
2023-03-26T04:59:08.049Z,8.57
2023-03-26T05:01:40.269Z,8.55
2023-03-26T05:04:08.483Z,8.55
2023-03-26T05:06:38.041Z,8.61
2023-03-26T05:09:10.811Z,8.69
2023-03-26T05:11:58.511Z,8.76
2023-03-26T05:14:26.413Z,8.75
2023-03-26T05:16:55.131Z,8.71
2023-03-26T05:19:23.409Z,8.71
2023-03-26T05:21:51.362Z,8.71
2023-03-26T05:24:19.903Z,8.69
2023-03-26T05:26:47.841Z,8.70
2023-03-26T05:29:17.479Z,8.69
2023-03-26T05:31:48.938Z,8.68
2023-03-26T05:34:16.883Z,8.64
2023-03-26T05:36:44.661Z,8.51
2023-03-26T05:39:35.686Z,8.19
2023-03-26T05:42:23.516Z,7.88
2023-03-26T05:45:17.597Z,7.66
2023-03-26T05:47:45.397Z,7.52
2023-03-26T05:50:13.254Z,7.40
2023-03-26T05:52:42.536Z,7.30
2023-03-26T05:55:25.730Z,7.19
2023-03-26T05:58:13.898Z,7.12
2023-03-26T06:01:06.274Z,7.08
2023-03-26T06:03:51.419Z,7.07
2023-03-26T06:06:21.123Z,7.08
2023-03-26T06:09:00.920Z,7.09
2023-03-26T06:11:32.008Z,7.10
2023-03-26T06:14:01.071Z,7.12
2023-03-26T06:16:28.895Z,7.14
2023-03-26T06:19:11.809Z,7.13
2023-03-26T06:21:57.964Z,7.11
2023-03-26T06:24:31.638Z,7.10
2023-03-26T06:27:22.489Z,7.15
2023-03-26T06:29:50.265Z,7.12
2023-03-26T06:32:34.034Z,7.10
2023-03-26T06:35:09.440Z,7.07
2023-03-26T06:37:37.719Z,7.04
2023-03-26T06:40:06.278Z,7.01
2023-03-26T06:43:07.957Z,6.94
2023-03-26T06:46:09.319Z,6.84
2023-03-26T06:48:42.324Z,6.78
2023-03-26T06:51:19.343Z,6.79
2023-03-26T06:54:05.885Z,6.76
2023-03-26T06:57:02.568Z,6.69
2023-03-26T07:00:09.327Z,6.60
2023-03-26T07:02:55.612Z,6.59
2023-03-26T07:05:41.798Z,6.57
2023-03-26T07:08:28.041Z,6.60
2023-03-26T07:11:14.226Z,6.63
2023-03-26T07:14:00.969Z,6.66
2023-03-26T07:17:00.586Z,6.70
2023-03-26T07:19:53.703Z,6.76
2023-03-26T07:22:26.067Z,6.79
2023-03-26T07:25:14.116Z,6.84
2023-03-26T07:28:01.164Z,6.86
2023-03-26T07:30:55.398Z,6.85
2023-03-26T07:33:51.118Z,6.89
2023-03-26T07:37:08.780Z,6.93
2023-03-26T07:40:34.920Z,6.93
2023-03-26T07:43:45.976Z,6.96
2023-03-26T07:46:37.146Z,7.02
2023-03-26T07:49:24.420Z,7.03
2023-03-26T07:52:15.362Z,7.11
2023-03-26T07:54:56.220Z,7.18
2023-03-26T07:57:54.598Z,7.18
2023-03-26T08:01:10.158Z,7.16
2023-03-26T08:03:59.244Z,7.18
2023-03-26T08:07:26.132Z,7.28
2023-03-26T08:10:59.151Z,7.38
2023-03-26T08:14:03.311Z,7.48
2023-03-26T08:16:37.186Z,7.50
2023-03-26T08:19:47.101Z,7.51
2023-03-26T08:22:57.223Z,7.55
2023-03-26T08:25:42.377Z,7.56
2023-03-26T08:28:48.785Z,7.55
2023-03-26T08:31:19.426Z,7.55
2023-03-26T08:33:47.386Z,7.57
2023-03-26T08:36:15.642Z,7.63
2023-03-26T08:38:45.147Z,7.68
2023-03-26T08:41:25.599Z,7.74
2023-03-26T08:44:31.218Z,7.78
2023-03-26T08:47:05.333Z,7.82
2023-03-26T08:49:51.491Z,8.00
2023-03-26T08:52:40.516Z,8.14
2023-03-26T08:55:29.052Z,8.27
2023-03-26T08:58:06.109Z,8.40
2023-03-26T09:00:40.371Z,8.60
2023-03-26T09:03:25.069Z,8.75
2023-03-26T09:06:41.538Z,8.85
2023-03-26T09:09:47.066Z,8.82
2023-03-26T09:12:29.838Z,8.88
2023-03-26T09:15:32.887Z,9.04
2023-03-26T09:18:00.900Z,9.13
2023-03-26T09:20:37.792Z,9.17
2023-03-26T09:23:45.344Z,9.16
2023-03-26T09:26:42.263Z,9.18
2023-03-26T09:29:34.004Z,9.26
2023-03-26T09:32:05.012Z,9.25
2023-03-26T09:34:54.485Z,9.29
2023-03-26T09:37:56.740Z,9.35
2023-03-26T09:40:58.318Z,9.34
2023-03-26T09:43:36.715Z,9.48
2023-03-26T09:46:21.014Z,9.57
2023-03-26T09:48:54.448Z,9.66
2023-03-26T09:51:37.618Z,9.76
2023-03-26T09:54:10.803Z,9.83
2023-03-26T09:56:52.366Z,9.91
2023-03-26T09:59:32.287Z,10.02
2023-03-26T10:02:45.920Z,10.12
2023-03-26T10:05:49.103Z,10.06
2023-03-26T10:08:32.190Z,9.93
2023-03-26T10:11:28.215Z,9.77
2023-03-26T10:14:13.817Z,9.51
2023-03-26T10:16:50.705Z,9.34
2023-03-26T10:19:34.093Z,9.33
2023-03-26T10:22:32.392Z,9.37
2023-03-26T10:25:13.204Z,9.46
2023-03-26T10:28:09.025Z,9.48
2023-03-26T10:31:25.724Z,9.49
2023-03-26T10:34:09.020Z,9.47
2023-03-26T10:37:54.314Z,9.47
2023-03-26T10:40:32.375Z,9.30
2023-03-26T10:43:24.231Z,9.14
2023-03-26T10:46:19.345Z,9.15
2023-03-26T10:49:18.387Z,9.33
2023-03-26T10:52:08.105Z,9.45
2023-03-26T10:54:53.681Z,9.40
2023-03-26T10:57:43.195Z,9.49
2023-03-26T11:00:31.213Z,9.64
2023-03-26T11:03:11.255Z,9.81
2023-03-26T11:05:47.952Z,9.90
2023-03-26T11:08:32.284Z,10.00
2023-03-26T11:11:18.743Z,9.95
2023-03-26T11:13:52.926Z,9.81
2023-03-26T11:16:54.731Z,9.64
2023-03-26T11:19:35.932Z,9.47
2023-03-26T11:22:13.140Z,9.24
2023-03-26T11:24:47.013Z,9.08
2023-03-26T11:27:26.325Z,8.91
2023-03-26T11:30:23.565Z,8.84
2023-03-26T11:33:02.292Z,8.71
2023-03-26T11:35:39.481Z,8.59
2023-03-26T11:38:20.306Z,8.52
2023-03-26T11:40:54.148Z,8.43
2023-03-26T11:43:36.914Z,8.36
2023-03-26T11:46:09.643Z,8.28
2023-03-26T11:48:44.808Z,8.25
2023-03-26T11:51:36.765Z,8.25
2023-03-26T11:54:06.541Z,8.14
2023-03-26T11:57:05.019Z,8.14
2023-03-26T11:59:55.553Z,8.03
2023-03-26T12:02:38.378Z,8.01
2023-03-26T12:05:19.712Z,7.96
2023-03-26T12:07:56.096Z,7.86
2023-03-26T12:10:31.508Z,7.86
2023-03-26T12:13:02.616Z,7.85
2023-03-26T12:15:32.131Z,7.85
2023-03-26T12:18:20.757Z,7.85
2023-03-26T12:20:49.487Z,7.72
2023-03-26T12:23:43.643Z,7.78
2023-03-26T12:26:16.542Z,7.84
2023-03-26T12:28:47.266Z,7.94
2023-03-26T12:31:18.387Z,7.99
2023-03-26T12:34:06.091Z,8.03
2023-03-26T12:36:35.899Z,8.12
2023-03-26T12:40:09.913Z,8.24
2023-03-26T12:44:47.168Z,8.19
2023-03-26T12:45:24.649Z,8.13
2023-03-26T12:47:57.449Z,8.16
2023-03-26T12:50:42.763Z,8.30
2023-03-26T12:53:31.938Z,8.49
2023-03-26T12:56:27.240Z,8.63
2023-03-26T12:58:58.143Z,8.65
2023-03-26T13:01:47.194Z,8.51
2023-03-26T13:04:27.389Z,8.42
2023-03-26T13:07:02.764Z,8.35
2023-03-26T13:10:21.187Z,8.32
2023-03-26T13:12:58.218Z,8.28
2023-03-26T13:15:34.637Z,8.23
2023-03-26T13:18:33.539Z,8.12
2023-03-26T13:21:31.400Z,8.13
2023-03-26T13:24:43.352Z,8.30
2023-03-26T13:27:30.756Z,8.56
2023-03-26T13:30:25.459Z,8.75
2023-03-26T13:33:06.893Z,8.95
2023-03-26T13:35:48.393Z,9.09
2023-03-26T13:38:37.879Z,9.06
2023-03-26T13:41:30.428Z,8.99
2023-03-26T13:44:31.187Z,8.98
2023-03-26T13:47:13.159Z,8.93
2023-03-26T13:49:46.756Z,9.02
2023-03-26T13:52:25.179Z,9.10
2023-03-26T13:55:03.623Z,9.29
2023-03-26T13:57:40.811Z,9.40
2023-03-26T14:00:13.774Z,9.63
2023-03-26T14:02:49.481Z,9.78
2023-03-26T14:05:29.744Z,9.50
2023-03-26T14:08:17.342Z,9.38
2023-03-26T14:10:54.197Z,9.20
2023-03-26T14:13:31.964Z,9.10
2023-03-26T14:16:10.995Z,8.90
2023-03-26T14:18:41.362Z,8.86
2023-03-26T14:21:28.075Z,8.82
2023-03-26T14:24:11.136Z,8.72
2023-03-26T14:26:53.836Z,8.70
2023-03-26T14:29:56.846Z,8.71
2023-03-26T14:32:43.959Z,8.62
2023-03-26T14:35:35.149Z,8.58
2023-03-26T14:38:41.928Z,8.57
2023-03-26T14:41:24.864Z,8.64
2023-03-26T14:44:28.680Z,8.74
2023-03-26T14:47:16.926Z,8.80
2023-03-26T14:50:04.004Z,8.69
2023-03-26T14:52:50.129Z,8.74
2023-03-26T14:55:23.785Z,8.74
2023-03-26T14:58:01.971Z,8.81
2023-03-26T15:01:04.210Z,8.84
2023-03-26T15:04:03.204Z,8.94
2023-03-26T15:06:49.893Z,8.86
2023-03-26T15:09:32.511Z,8.84
2023-03-26T15:12:18.514Z,9.07
2023-03-26T15:15:20.878Z,9.10
2023-03-26T15:18:07.406Z,9.04
2023-03-26T15:20:54.581Z,9.05
2023-03-26T15:23:37.096Z,9.04
2023-03-26T15:26:42.544Z,9.03
2023-03-26T15:29:31.921Z,9.24
2023-03-26T15:32:26.064Z,9.20
2023-03-26T15:35:13.288Z,9.10
2023-03-26T15:37:57.084Z,8.96
2023-03-26T15:40:36.681Z,8.90
2023-03-26T15:43:12.344Z,8.85
2023-03-26T15:46:24.488Z,8.82
2023-03-26T15:48:52.471Z,8.79
2023-03-26T15:51:31.644Z,8.85
2023-03-26T15:54:48.917Z,8.85
2023-03-26T15:57:34.637Z,8.65
2023-03-26T16:00:15.373Z,8.62
2023-03-26T16:02:53.702Z,8.59
2023-03-26T16:05:37.295Z,8.57
2023-03-26T16:08:26.739Z,8.64
2023-03-26T16:11:00.374Z,8.73
2023-03-26T16:13:36.727Z,8.72
2023-03-26T16:16:04.519Z,8.68
2023-03-26T16:18:41.151Z,8.65
2023-03-26T16:21:37.108Z,8.59
2023-03-26T16:24:08.185Z,8.51
2023-03-26T16:26:40.116Z,8.41
2023-03-26T16:29:18.125Z,8.42
2023-03-26T16:32:00.738Z,8.29
2023-03-26T16:34:47.751Z,8.32
2023-03-26T16:37:37.169Z,8.29
2023-03-26T16:40:23.651Z,8.21
2023-03-26T16:43:29.139Z,8.25
2023-03-26T16:46:05.722Z,8.25
2023-03-26T16:48:48.512Z,8.24
2023-03-26T16:51:25.714Z,8.28
2023-03-26T16:54:04.076Z,8.35
2023-03-26T16:56:34.643Z,8.38
2023-03-26T16:59:25.918Z,8.36
2023-03-26T17:02:05.027Z,8.46
2023-03-26T17:04:34.488Z,8.46
2023-03-26T17:07:21.819Z,8.47
2023-03-26T17:10:14.901Z,8.51
2023-03-26T17:12:55.155Z,8.55
2023-03-26T17:15:47.267Z,8.57
2023-03-26T17:18:30.418Z,8.62
2023-03-26T17:21:09.725Z,8.63
2023-03-26T17:24:00.441Z,8.58
2023-03-26T17:26:53.763Z,8.45
2023-03-26T17:29:27.266Z,8.32
2023-03-26T17:32:09.254Z,8.23
2023-03-26T17:34:49.153Z,8.16
2023-03-26T17:37:17.017Z,8.14
2023-03-26T17:39:46.961Z,8.12
2023-03-26T17:42:32.895Z,8.09
2023-03-26T17:45:17.581Z,8.05
2023-03-26T17:48:02.414Z,8.02
2023-03-26T17:50:47.411Z,7.97
2023-03-26T17:53:27.205Z,7.93
2023-03-26T17:56:01.164Z,7.90
2023-03-26T17:58:39.106Z,7.87
2023-03-26T18:01:09.954Z,7.84
2023-03-26T18:04:03.081Z,7.77
2023-03-26T18:06:46.291Z,7.72
2023-03-26T18:09:36.198Z,7.67
2023-03-26T18:12:38.256Z,7.58
2023-03-26T18:15:24.027Z,7.49
2023-03-26T18:18:07.571Z,7.44
2023-03-26T18:20:37.589Z,7.37
2023-03-26T18:23:12.443Z,7.32
2023-03-26T18:25:41.124Z,7.28
2023-03-26T18:28:14.201Z,7.25
2023-03-26T18:30:47.732Z,7.18
2023-03-26T18:33:16.036Z,7.17
2023-03-26T18:35:54.147Z,7.17
2023-03-26T18:38:35.505Z,7.15
2023-03-26T18:41:08.378Z,7.15
2023-03-26T18:43:44.386Z,7.15
2023-03-26T18:46:14.714Z,7.10
2023-03-26T18:48:44.022Z,7.10
2023-03-26T18:51:12.725Z,7.13
2023-03-26T18:53:52.013Z,7.10
2023-03-26T18:56:31.798Z,7.10
2023-03-26T18:59:02.403Z,7.10
2023-03-26T19:01:33.375Z,7.05
2023-03-26T19:04:05.808Z,7.05
2023-03-26T19:06:38.530Z,7.03
2023-03-26T19:09:20.021Z,7.03
2023-03-26T19:11:58.738Z,7.01
2023-03-26T19:14:28.729Z,6.98
2023-03-26T19:17:00.943Z,6.93
2023-03-26T19:19:37.837Z,6.92
2023-03-26T19:22:07.272Z,6.93
2023-03-26T19:24:35.201Z,6.94
2023-03-26T19:27:04.105Z,6.92
2023-03-26T19:29:34.160Z,6.94
2023-03-26T19:32:05.234Z,6.93
2023-03-26T19:34:38.999Z,6.91
2023-03-26T19:37:23.868Z,6.91
2023-03-26T19:40:12.813Z,6.90
2023-03-26T19:42:44.764Z,6.85
2023-03-26T19:45:21.801Z,6.81
2023-03-26T19:48:00.416Z,6.76
2023-03-26T19:50:42.470Z,6.76
2023-03-26T19:53:24.582Z,6.73
2023-03-26T19:56:15.480Z,6.69
2023-03-26T19:58:44.091Z,6.68
2023-03-26T20:01:18.820Z,6.66
2023-03-26T20:03:49.767Z,6.66
2023-03-26T20:06:23.721Z,6.59
2023-03-26T20:08:56.652Z,6.58
2023-03-26T20:11:33.346Z,6.56
2023-03-26T20:14:01.698Z,6.56
2023-03-26T20:16:33.461Z,6.59
2023-03-26T20:19:02.478Z,6.57
2023-03-26T20:21:34.564Z,6.55
2023-03-26T20:24:02.940Z,6.57
2023-03-26T20:26:30.833Z,6.57
2023-03-26T20:28:58.892Z,6.58
2023-03-26T20:31:27.382Z,6.58
2023-03-26T20:33:56.518Z,6.59
2023-03-26T20:36:33.229Z,6.57
2023-03-26T20:39:08.003Z,6.54
2023-03-26T20:41:41.854Z,6.53
2023-03-26T20:44:15.919Z,6.56
2023-03-26T20:47:24.857Z,6.56
2023-03-26T20:49:53.112Z,6.53
2023-03-26T20:52:22.888Z,6.50
2023-03-26T20:54:50.648Z,6.49
2023-03-26T20:57:18.744Z,6.48
2023-03-26T20:59:46.721Z,6.49
2023-03-26T21:02:14.732Z,6.50
2023-03-26T21:04:42.632Z,6.52
2023-03-26T21:07:17.481Z,6.51
2023-03-26T21:09:48.789Z,6.49
2023-03-26T21:12:29.608Z,6.45
2023-03-26T21:14:58.445Z,6.46
2023-03-26T21:17:27.145Z,6.45
2023-03-26T21:19:55.368Z,6.44
2023-03-26T21:23:04.564Z,6.42
2023-03-26T21:25:43.285Z,6.41
2023-03-26T21:28:13.954Z,6.41
2023-03-26T21:30:42.645Z,6.41
2023-03-26T21:33:10.496Z,6.39
2023-03-26T21:35:38.754Z,6.42
2023-03-26T21:38:09.391Z,6.44
2023-03-26T21:40:40.594Z,6.42
2023-03-26T21:43:12.841Z,6.44
2023-03-26T21:45:41.520Z,6.43
2023-03-26T21:48:10.607Z,6.42
2023-03-26T21:50:38.946Z,6.38
2023-03-26T21:53:07.376Z,6.39
2023-03-26T21:56:00.980Z,6.36
2023-03-26T21:58:47.712Z,6.32
2023-03-26T22:01:33.264Z,6.34
2023-03-26T22:04:36.453Z,6.34
2023-03-26T22:07:17.686Z,6.33
2023-03-26T22:09:46.407Z,6.34
2023-03-26T22:12:14.284Z,6.30
2023-03-26T22:14:42.395Z,6.29
2023-03-26T22:17:10.499Z,6.31
2023-03-26T22:19:38.456Z,6.32
2023-03-26T22:22:06.261Z,6.32
2023-03-26T22:24:34.385Z,6.34
2023-03-26T22:27:02.676Z,6.34
2023-03-26T22:29:30.535Z,6.36
2023-03-26T22:31:58.333Z,6.34
2023-03-26T22:34:26.107Z,6.32
2023-03-26T22:36:53.903Z,6.31
2023-03-26T22:39:21.766Z,6.30
2023-03-26T22:41:49.568Z,6.30
2023-03-26T22:44:20.249Z,6.29
2023-03-26T22:46:51.773Z,6.29
2023-03-26T22:49:19.990Z,6.30
2023-03-26T22:51:48.036Z,6.32
2023-03-26T22:54:15.855Z,6.34
2023-03-26T22:56:45.773Z,6.35
2023-03-26T22:59:13.880Z,6.29
2023-03-26T23:01:41.745Z,6.26
2023-03-26T23:04:09.927Z,6.28
2023-03-26T23:06:37.887Z,6.31
2023-03-26T23:09:07.170Z,6.33
2023-03-26T23:11:35.137Z,6.31
2023-03-26T23:14:03.168Z,6.30
2023-03-26T23:16:31.810Z,6.26
2023-03-26T23:18:59.955Z,6.25
2023-03-26T23:21:27.780Z,6.24
2023-03-26T23:23:55.766Z,6.22
2023-03-26T23:26:24.488Z,6.18
2023-03-26T23:28:52.397Z,6.13
2023-03-26T23:31:20.206Z,6.13
2023-03-26T23:33:50.226Z,6.09
2023-03-26T23:36:20.363Z,6.11
2023-03-26T23:38:48.962Z,6.13
2023-03-26T23:41:21.537Z,6.11
2023-03-26T23:43:53.936Z,6.09
2023-03-26T23:46:34.694Z,6.02
2023-03-26T23:49:03.768Z,5.99
2023-03-26T23:51:33.246Z,5.97
2023-03-26T23:54:01.493Z,5.97
2023-03-26T23:56:30.063Z,5.97
2023-03-26T23:58:59.255Z,5.98
